Flight Track Log - Related Links

Times and Time Zones

All times are in EDT time to prevent confusion due to time zone crossing. See the SWA864 flight status page for this flight to view local times or setup timezone preferences in your user account.

Time Position Orientation Groundspeed Altitude Reporting Facility
EDT Latitude Longitude Course Direction KTS MPH feet Rate Location/Type
Sat 09:22:12 AM 26.0719 -80.1758 277° West 150 173 700  Level Miami Center
Sat 09:23:19 AM 26.0789 -80.2408 277° West 218 251 2,900 2,109 Climbing Miami Center
Sat 09:24:20 AM 26.1042 -80.3133 291° West 270 311 5,200 2,534 Climbing Miami Center
Sat 09:25:15 AM 26.1339 -80.3836 295° West 281 323 7,800 2,872 Climbing Miami Center
Sat 09:26:17 AM 26.1675 -80.4678 294° West 295 339 10,800 2,195 Climbing Miami Center
Sat 09:27:18 AM 26.2069 -80.5547 297° West 354 407 12,300 2,033 Climbing Miami Center
Sat 09:28:18 AM 26.2653 -80.6400 307° West 357 411 14,900 2,600 Climbing Miami Center
Sat 09:29:18 AM 26.3636 -80.7150 326° Northwest 379 436 17,500 2,300 Climbing Miami Center
Sat 09:30:18 AM 26.4475 -80.7825 324° Northwest 403 464 19,500 2,200 Climbing Miami Center
Sat 09:31:18 AM 26.5519 -80.8628 325° Northwest 413 475 21,900 2,200 Climbing Miami Center
Sat 09:32:18 AM 26.6458 -80.9403 324° Northwest 422 486 23,900 1,850 Climbing Miami Center
Sat 09:33:18 AM 26.7458 -81.0181 325° Northwest 427 491 25,600 1,550 Climbing Miami Center
Sat 09:34:18 AM 26.8356 -81.0911 324° Northwest 432 497 27,000 1,450 Climbing Miami Center
Sat 09:35:18 AM 26.9397 -81.1717 325° Northwest 450 518 28,500 1,700 Climbing Miami Center
Sat 09:36:18 AM 27.0539 -81.2647 324° Northwest 456 525 30,400 1,900 Climbing Miami Center
Sat 09:37:18 AM 27.1536 -81.3431 325° Northwest 451 519 32,300 1,650 Climbing Miami Center
Sat 09:38:18 AM 27.2533 -81.4239 324° Northwest 446 513 33,700 1,450 Climbing Miami Center
Sat 09:39:18 AM 27.3450 -81.5000 324° Northwest 446 513 35,200 1,150 Climbing Miami Center
Sat 09:40:18 AM 27.4447 -81.5789 325° Northwest 446 513 36,000 261 Climbing Miami Center
Sat 09:42:22 AM 27.6503 -81.7378 326° Northwest 457 526 36,000  Level Jacksonville Center
Sat 09:43:22 AM 27.7511 -81.8164 325° Northwest 451 519 36,000  Level Jacksonville Center
Sat 09:44:22 AM 27.8539 -81.8997 324° Northwest 451 519 36,000  Level Jacksonville Center
Sat 09:45:22 AM 27.9506 -81.9833 323° Northwest 451 519 36,000  Level Jacksonville Center
Sat 09:46:22 AM 28.0556 -82.0767 322° Northwest 445 512 36,000  Level Jacksonville Center
Sat 09:47:22 AM 28.1478 -82.1653 320° Northwest 439 505 36,000  Level Jacksonville Center
Sat 09:48:22 AM 28.2214 -82.2731 308° West 428 493 36,000  Level Jacksonville Center
Sat 09:49:22 AM 28.2969 -82.3833 308° West 434 499 36,000  Level Jacksonville Center
Sat 09:50:22 AM 28.3725 -82.4917 308° West 439 505 36,000  Level Jacksonville Center
Sat 09:51:22 AM 28.4500 -82.6022 309° West 444 511 36,000  Level Jacksonville Center
Sat 09:52:22 AM 28.5275 -82.7153 308° West 449 517 36,000  Level Jacksonville Center
Sat 09:53:22 AM 28.6028 -82.8286 307° West 449 517 36,000  Level Jacksonville Center
Sat 09:54:22 AM 28.6800 -82.9400 308° West 449 517 36,000  Level Jacksonville Center
Sat 09:55:22 AM 28.7467 -83.0369 308° West 449 517 36,000  Level Jacksonville Center
Sat 09:56:22 AM 28.8217 -83.1486 307° West 449 517 36,000  Level Jacksonville Center
Sat 09:57:22 AM 28.8986 -83.2625 308° West 449 517 36,000  Level Jacksonville Center
Sat 09:58:22 AM 28.9714 -83.3719 307° West 449 517 36,000  Level Jacksonville Center
Sat 09:59:22 AM 29.0481 -83.4839 308° West 449 517 36,000  Level Jacksonville Center
Sat 10:00:22 AM 29.1186 -83.5939 306° West 444 511 36,000  Level Jacksonville Center
Sat 10:01:22 AM 29.1931 -83.7036 308° West 444 511 36,000  Level Jacksonville Center
Sat 10:02:22 AM 29.2653 -83.8186 306° West 444 511 36,000  Level Jacksonville Center
Sat 10:03:22 AM 29.3353 -83.9311 306° West 439 505 36,000  Level Jacksonville Center
Sat 10:04:22 AM 29.4053 -84.0439 305° West 439 505 36,000  Level Jacksonville Center
Sat 10:05:22 AM 29.4775 -84.1544 307° West 439 505 36,000  Level Jacksonville Center
Sat 10:06:22 AM 29.5472 -84.2678 305° West 433 498 36,000  Level Jacksonville Center
Sat 10:07:22 AM 29.6189 -84.3808 306° West 433 498 36,000  Level Jacksonville Center
Sat 10:08:22 AM 29.6906 -84.4944 306° West 438 504 36,000  Level Jacksonville Center
Sat 10:09:22 AM 29.7644 -84.6081 307° West 438 504 36,000  Level Jacksonville Center
Sat 10:10:22 AM 29.8358 -84.7242 305° West 438 504 36,000  Level Jacksonville Center
Sat 10:11:22 AM 29.9050 -84.8406 304° West 438 504 36,000  Level Jacksonville Center
Sat 10:12:22 AM 29.9764 -84.9547 306° West 438 504 36,000  Level Jacksonville Center
Sat 10:13:22 AM 30.0475 -85.0667 306° West 443 510 36,000  Level Jacksonville Center
Sat 10:14:22 AM 30.1167 -85.1786 306° West 438 504 36,000  Level Jacksonville Center
Sat 10:15:22 AM 30.1875 -85.2933 306° West 433 498 36,000  Level Jacksonville Center
Sat 10:16:22 AM 30.2644 -85.4178 306° West 433 498 36,000  Level Jacksonville Center
Sat 10:17:22 AM 30.3353 -85.5328 306° West 433 498 36,000  Level Jacksonville Center
Sat 10:18:22 AM 30.4039 -85.6478 305° West 433 498 36,000  Level Jacksonville Center
Sat 10:19:22 AM 30.4722 -85.7656 304° West 438 504 36,000  Level Jacksonville Center
Sat 10:20:22 AM 30.5447 -85.8811 306° West 438 504 36,000  Level Jacksonville Center
Sat 10:21:22 AM 30.6150 -85.9967 305° West 438 504 36,000  Level Jacksonville Center
Sat 10:22:22 AM 30.6831 -86.1147 304° West 438 504 36,000  Level Jacksonville Center
Sat 10:23:22 AM 30.7511 -86.2283 305° West 438 504 36,000  Level Jacksonville Center
Sat 10:24:22 AM 30.8169 -86.3419 304° West 431 496 36,000  Level Jacksonville Center
Sat 10:25:22 AM 30.8869 -86.4533 306° West 431 496 36,000  Level Jacksonville Center
Sat 10:26:22 AM 30.9525 -86.5647 304° West 431 496 36,000  Level Jacksonville Center
Sat 10:27:22 AM 31.0064 -86.6564 304° West 431 496 36,000  Level Jacksonville Center
Sat 10:29:30 AM 31.1664 -86.9217 305° West 444 511 36,000  Level Atlanta Center
Sat 10:30:30 AM 31.2306 -87.0306 305° West 431 496 36,000  Level Atlanta Center
Sat 10:31:30 AM 31.2964 -87.1444 304° West 424 488 36,000  Level Atlanta Center
Sat 10:32:30 AM 31.3625 -87.2561 305° West 424 488 36,000  Level Atlanta Center
Sat 10:33:30 AM 31.4283 -87.3728 303° West 424 488 36,000  Level Atlanta Center
Sat 10:34:30 AM 31.4942 -87.4822 305° West 424 488 36,000  Level Atlanta Center
Sat 10:35:30 AM 31.5597 -87.5969 304° West 424 488 36,000  Level Atlanta Center
Sat 10:36:30 AM 31.6214 -87.7017 305° West 424 488 36,000  Level Atlanta Center
Sat 10:38:20 AM 31.7419 -87.9172 303° West 421 484 36,000  Level Memphis Center
Sat 10:39:20 AM 31.8067 -88.0303 304° West 421 484 36,000  Level Memphis Center
Sat 10:40:20 AM 31.8694 -88.1461 303° West 421 484 36,000  Level Memphis Center
Sat 10:41:20 AM 31.9425 -88.2692 305° West 421 484 36,000  Level Memphis Center
Sat 10:42:20 AM 32.0069 -88.3828 304° West 421 484 36,000  Level Memphis Center
Sat 10:43:20 AM 32.0714 -88.4992 303° West 421 484 36,000  Level Memphis Center
Sat 10:44:20 AM 32.1356 -88.6106 304° West 416 479 36,000  Level Memphis Center
Sat 10:45:20 AM 32.1997 -88.7222 304° West 411 473 36,000  Level Memphis Center
Sat 10:46:20 AM 32.2553 -88.8269 302° West 411 473 36,000  Level Memphis Center
Sat 10:47:20 AM 32.3214 -88.9389 305° West 411 473 36,000  Level Memphis Center
Sat 10:48:20 AM 32.3853 -89.0536 303° West 411 473 36,000  Level Memphis Center
Sat 10:49:20 AM 32.4469 -89.1683 303° West 411 473 36,000  Level Memphis Center
Sat 10:50:20 AM 32.5106 -89.2833 303° West 411 473 36,000  Level Memphis Center
Sat 10:51:20 AM 32.5722 -89.3933 304° West 411 473 36,000  Level Memphis Center
Sat 10:52:20 AM 32.6336 -89.5061 303° West 411 473 36,000  Level Memphis Center
Sat 10:53:20 AM 32.6947 -89.6217 302° West 411 473 36,000  Level Memphis Center
Sat 10:54:20 AM 32.7539 -89.7322 302° West 411 473 36,000  Level Memphis Center
Sat 10:55:20 AM 32.8108 -89.8431 301° West 405 466 36,000  Level Memphis Center
Sat 10:56:20 AM 32.8781 -89.9589 305° West 411 473 36,000  Level Memphis Center
Sat 10:57:20 AM 32.9450 -90.0850 302° West 411 473 36,000  Level Memphis Center
Sat 10:58:20 AM 33.0058 -90.1964 303° West 411 473 36,000  Level Memphis Center
Sat 10:59:20 AM 33.0664 -90.3078 303° West 411 473 36,000  Level Memphis Center
Sat 11:00:20 AM 33.1269 -90.4217 302° West 411 473 36,000  Level Memphis Center
Sat 11:01:20 AM 33.1875 -90.5336 303° West 411 473 36,000  Level Memphis Center
Sat 11:02:20 AM 33.2436 -90.6381 303° West 411 473 36,000  Level Memphis Center
Sat 11:03:20 AM 33.3039 -90.7500 303° West 411 473 36,000  Level Memphis Center
Sat 11:04:20 AM 33.3639 -90.8647 302° West 411 473 36,000  Level Memphis Center
Sat 11:05:20 AM 33.4261 -90.9794 303° West 411 473 36,000  Level Memphis Center
Sat 11:06:20 AM 33.4839 -91.0919 302° West 406 467 36,000  Level Memphis Center
Sat 11:07:20 AM 33.5458 -91.2072 303° West 406 467 36,000  Level Memphis Center
Sat 11:08:20 AM 33.6033 -91.3200 301° West 406 467 36,000  Level Memphis Center
Sat 11:09:20 AM 33.6631 -91.4328 302° West 406 467 36,000  Level Memphis Center
Sat 11:10:20 AM 33.7206 -91.5436 302° West 406 467 36,000  Level Memphis Center
Sat 11:11:21 AM 33.7819 -91.6592 303° West 406 467 36,000  Level Memphis Center
Sat 11:12:20 AM 33.8475 -91.7753 304° West 412 474 36,000  Level Memphis Center
Sat 11:13:20 AM 33.9006 -91.8889 299° West 410 472 36,000  Level Memphis Center
Sat 11:14:20 AM 33.9617 -92.0050 302° West 410 472 36,000  Level Memphis Center
Sat 11:15:20 AM 34.0206 -92.1189 302° West 410 472 36,000  Level Memphis Center
Sat 11:16:20 AM 34.0792 -92.2406 300° West 405 466 36,000  Level Memphis Center
Sat 11:17:20 AM 34.1400 -92.3572 302° West 405 466 36,000  Level Memphis Center
Sat 11:18:21 AM 34.1986 -92.4742 301° West 410 472 36,000  Level Memphis Center
Sat 11:19:20 AM 34.2572 -92.5861 302° West 410 472 36,000  Level Memphis Center
Sat 11:20:20 AM 34.3036 -92.6806 301° West 405 466 36,000  Level Memphis Center
Sat 11:21:20 AM 34.3719 -92.8156 302° West 410 472 36,000  Level Memphis Center
Sat 11:22:20 AM 34.4281 -92.9306 301° West 410 472 36,000  Level Memphis Center
Sat 11:23:20 AM 34.4861 -93.0456 302° West 410 472 36,000  Level Memphis Center
Sat 11:24:20 AM 34.5442 -93.1583 302° West 402 463 36,000  Level Memphis Center
Sat 11:25:21 AM 34.6000 -93.2739 300° West 402 463 36,000  Level Memphis Center
Sat 11:26:20 AM 34.6556 -93.3867 301° West 402 463 36,000  Level Memphis Center
Sat 11:27:20 AM 34.7111 -93.5000 301° West 402 463 36,000  Level Memphis Center
Sat 11:28:20 AM 34.7647 -93.6106 301° West 397 457 36,000  Level Memphis Center
Sat 11:29:20 AM 34.8200 -93.7239 301° West 397 457 36,000  Level Memphis Center
Sat 11:30:20 AM 34.8797 -93.8378 303° West 391 450 36,000  Level Memphis Center
Sat 11:31:20 AM 34.9267 -93.9436 298° West 383 441 36,000  Level Memphis Center
Sat 11:32:21 AM 34.9839 -94.0550 302° West 383 441 36,000  Level Memphis Center
Sat 11:33:20 AM 35.0369 -94.1664 300° West 377 434 36,000  Level Memphis Center
Sat 11:34:20 AM 35.0878 -94.2753 300° West 382 440 36,000  Level Memphis Center
Sat 11:35:20 AM 35.1428 -94.3844 302° West 382 440 36,000  Level Memphis Center
Sat 11:36:20 AM 35.1972 -94.4989 300° West 382 440 36,000  Level Memphis Center
Sat 11:38:27 AM 35.3069 -94.7400 299° West 385 443 36,000  Level Fort Worth Center
Sat 11:39:27 AM 35.3614 -94.8478 302° West 385 443 36,000  Level Fort Worth Center
Sat 11:40:27 AM 35.4136 -94.9608 300° West 385 443 36,000  Level Fort Worth Center
Sat 11:41:27 AM 35.4658 -95.0739 300° West 385 443 36,000  Level Fort Worth Center
Sat 11:42:27 AM 35.5200 -95.1847 301° West 385 443 36,000  Level Fort Worth Center
Sat 11:42:58 AM 35.5400 -95.2236 302° West 376 433 36,000  Level Kansas City Center
Sat 11:44:00 AM 35.5922 -95.3369 300° West 378 435 36,000  Level Kansas City Center
Sat 11:45:02 AM 35.6539 -95.4697 300° West 375 432 36,000  Level Kansas City Center
Sat 11:46:04 AM 35.7061 -95.5817 300° West 374 430 36,000  Level Kansas City Center
Sat 11:47:06 AM 35.7581 -95.6939 300° West 375 432 36,000  Level Kansas City Center
Sat 11:48:08 AM 35.8108 -95.8069 300° West 377 434 36,000  Level Kansas City Center
Sat 11:49:10 AM 35.8619 -95.9200 299° West 376 433 36,000  Level Kansas City Center
Sat 11:50:12 AM 35.9133 -96.0331 299° West 376 433 36,000  Level Kansas City Center
Sat 11:51:15 AM 35.9658 -96.1467 300° West 377 434 36,000  Level Kansas City Center
Sat 11:52:17 AM 36.0172 -96.2597 299° West 377 434 36,000  Level Kansas City Center
Sat 11:53:19 AM 36.0911 -96.3844 306° West 374 430 36,000  Level Kansas City Center
Sat 11:54:21 AM 36.1606 -96.4789 312° West 371 427 36,000  Level Kansas City Center
Sat 11:55:23 AM 36.2303 -96.5747 312° West 372 428 36,000  Level Kansas City Center
Sat 11:56:25 AM 36.2981 -96.6719 311° West 372 428 36,000  Level Kansas City Center
Sat 11:57:27 AM 36.3736 -96.7761 312° West 374 430 36,000  Level Kansas City Center
Sat 11:58:29 AM 36.4419 -96.8733 311° West 375 432 36,000  Level Kansas City Center
Sat 11:59:32 AM 36.5108 -96.9703 311° West 376 433 36,000  Level Kansas City Center
Sat 12:00:34 PM 36.5900 -97.0828 311° West 377 434 36,000  Level Kansas City Center
Sat 12:01:36 PM 36.6506 -97.1956 304° West 380 437 36,000  Level Kansas City Center
Sat 12:02:38 PM 36.6961 -97.3131 296° West 381 438 36,000  Level Kansas City Center
Sat 12:03:40 PM 36.7403 -97.4267 296° West 379 436 36,000  Level Kansas City Center
Sat 12:04:42 PM 36.7853 -97.5425 296° West 375 432 36,000  Level Kansas City Center
Sat 12:05:44 PM 36.8300 -97.6603 295° West 375 432 36,000  Level Kansas City Center
Sat 12:06:46 PM 36.8747 -97.7775 296° West 374 430 36,000  Level Kansas City Center
Sat 12:07:49 PM 36.9278 -97.9178 295° West 373 429 36,000  Level Kansas City Center
Sat 12:08:51 PM 36.9719 -98.0342 295° West 370 426 36,000  Level Kansas City Center
Sat 12:09:53 PM 37.0161 -98.1514 295° West 370 426 36,000  Level Kansas City Center
Sat 12:10:55 PM 37.0597 -98.2683 295° West 370 426 36,000  Level Kansas City Center
Sat 12:11:57 PM 37.1031 -98.3833 295° West 367 422 36,000  Level Kansas City Center
Sat 12:12:59 PM 37.1464 -98.5014 295° West 370 426 36,000  Level Kansas City Center
Sat 12:14:01 PM 37.1906 -98.6181 295° West 370 426 36,000  Level Kansas City Center
Sat 12:15:03 PM 37.2428 -98.7583 295° West 369 425 36,000  Level Kansas City Center
Sat 12:16:05 PM 37.2842 -98.8736 294° West 364 419 36,000  Level Kansas City Center
Sat 12:17:07 PM 37.3272 -98.9908 295° West 367 422 36,000  Level Kansas City Center
Sat 12:18:09 PM 37.3706 -99.1083 295° West 368 423 36,000  Level Kansas City Center
Sat 12:19:11 PM 37.4125 -99.2244 294° West 365 420 36,000  Level Kansas City Center
Sat 12:20:13 PM 37.4547 -99.3419 294° West 368 423 36,000  Level Kansas City Center
Sat 12:21:15 PM 37.5019 -99.4703 295° West 369 425 36,000  Level Kansas City Center
Sat 12:22:17 PM 37.5511 -99.6006 295° West 368 423 36,000  Level Kansas City Center
Sat 12:23:19 PM 37.5894 -99.7133 293° West 368 423 36,000  Level Kansas City Center
Sat 12:24:21 PM 37.6356 -99.8444 294° West 367 422 36,000  Level Kansas City Center
Sat 12:25:23 PM 37.6758 -99.9553 295° West 365 420 36,000  Level Kansas City Center
Sat 12:26:25 PM 37.7225 -100.0844 295° West 363 418 36,000  Level Kansas City Center
Sat 12:27:27 PM 37.7625 -100.1956 295° West 363 418 36,000  Level Kansas City Center
Sat 12:28:29 PM 37.8083 -100.3267 294° West 365 420 36,000  Level Kansas City Center
Sat 12:29:31 PM 37.8492 -100.4400 295° West 371 427 36,000  Level Kansas City Center
Sat 12:30:33 PM 37.8953 -100.5736 294° West 372 428 36,000  Level Kansas City Center
Sat 12:31:35 PM 37.9347 -100.6872 294° West 372 428 36,000  Level Kansas City Center
Sat 12:32:37 PM 37.9811 -100.8192 294° West 371 427 36,000  Level Kansas City Center
Sat 12:33:39 PM 38.0194 -100.9317 293° West 367 422 36,000  Level Kansas City Center
Sat 12:34:41 PM 38.0661 -101.0672 294° West 375 432 36,000  Level Kansas City Center
Sat 12:35:43 PM 38.1056 -101.1814 294° West 373 429 36,000  Level Kansas City Center
Sat 12:36:45 PM 38.1494 -101.3156 293° West 370 426 36,000  Level Kansas City Center
Sat 12:37:47 PM 38.1883 -101.4308 293° West 371 427 36,000  Level Kansas City Center
Sat 12:38:49 PM 38.2472 -101.5544 301° West 368 423 36,000  Level Kansas City Center
Sat 12:39:51 PM 38.3014 -101.6594 303° West 370 426 36,000  Level Kansas City Center
Sat 12:40:53 PM 38.3625 -101.7847 302° West 373 429 36,000  Level Kansas City Center
Sat 12:41:55 PM 38.4131 -101.8883 302° West 364 419 36,000  Level Kansas City Center
Sat 12:43:23 PM 38.4903 -102.0403 303° West 358 412 36,000  Level Denver Center
Sat 12:44:25 PM 38.5483 -102.1611 302° West 357 411 36,000 -484 Level Denver Center
Sat 12:45:27 PM 38.5986 -102.2639 302° West 357 411 35,000 -968 Descending Denver Center
Sat 12:46:29 PM 38.6592 -102.3867 302° West 364 419 34,000 -919 Descending Denver Center
Sat 12:47:31 PM 38.7111 -102.4944 302° West 371 427 33,100 -968 Descending Denver Center
Sat 12:48:33 PM 38.7742 -102.6225 302° West 380 437 32,000 -1,016 Descending Denver Center
Sat 12:49:35 PM 38.8261 -102.7331 301° West 379 436 31,000 -919 Descending Denver Center
Sat 12:50:37 PM 38.8800 -102.8419 302° West 377 434 30,100 -484 Descending Denver Center
Sat 12:51:39 PM 38.9442 -102.9769 301° West 372 428 30,000 -194 Descending Denver Center
Sat 12:52:41 PM 38.9978 -103.0894 302° West 371 427 29,700 -624 Descending Denver Center
Sat 12:53:44 PM 39.0511 -103.2025 301° West 372 428 28,700 -1,104 Descending Denver Center
Sat 12:54:46 PM 39.1050 -103.3139 302° West 369 425 27,400 -1,548 Descending Denver Center
Sat 12:55:48 PM 39.1561 -103.4239 301° West 360 414 25,500 -1,839 Descending Denver Center
Sat 12:56:50 PM 39.2061 -103.5300 301° West 350 403 23,600 -2,032 Descending Denver Center
Sat 12:57:52 PM 39.2644 -103.6522 302° West 335 386 21,300 -1,935 Descending Denver Center
Sat 12:58:54 PM 39.3114 -103.7536 301° West 329 379 19,600 -1,645 Descending Denver Center
Sat 12:59:56 PM 39.3558 -103.8536 300° West 325 374 17,900 -1,403 Descending Denver Center
Sat 01:00:58 PM 39.3978 -103.9658 296° West 327 376 16,700 -1,355 Descending Denver Center
Sat 01:02:00 PM 39.4025 -104.0764 273° West 310 357 15,100 -1,548 Descending Denver Center
Sat 01:03:02 PM 39.4075 -104.1919 273° West 301 346 13,500 -1,016 Descending Denver Center
Sat 01:04:04 PM 39.4167 -104.2908 277° West 284 327 13,000 -726 Descending Denver Center
Sat 01:05:06 PM 39.4514 -104.3675 300° West 252 290 12,000 -1,113 Descending Denver Center
Sat 01:06:08 PM 39.4867 -104.4528 298° West 251 289 10,700 -968 Descending Denver Center
Sat 01:07:10 PM 39.5428 -104.5014 326° Northwest 249 287 10,000 -774 Descending Denver Center
Sat 01:08:12 PM 39.6111 -104.5417 336° Northwest 251 289 9,100 -823 Descending Denver Center
Sat 01:09:14 PM 39.6633 -104.5739 335° Northwest 215 247 8,300 -919 Descending Denver Center
Sat 01:10:16 PM 39.7125 -104.6139 328° Northwest 196 226 7,200 -774 Descending Denver Center
Sat 01:11:18 PM 39.7561 -104.6428 333° Northwest 178 205 6,700 -576 Descending Denver Center
Sat 01:12:21 PM 39.8000 -104.6422 North 154 177 6,000 -672 Descending Denver Center
Sat 01:13:23 PM 39.8394 -104.6417 North 149 171 5,300 -677 Descending Denver Center
Sat 01:15:00 PM 39.8500 -104.6667 North  Level FlightAware Approximate
Sat 01:22:00 PM 39.8617 -104.6732 North  Level Estimated
Sat 01:23:00 PM 39.8617 -104.6732 North  Level Estimated

Login

Don't have an account? Register now (free) for customized features, flight alerts, and more!